sensor_id;sensor_type;location;lat;lon;timestamp;temperature;humidity
64111;DHT22;50401;48.188;11.566;2024-03-08T00:00:14;1.77;85.77
64111;DHT22;50401;48.188;11.566;2024-03-08T00:02:41;1.75;85.94
64111;DHT22;50401;48.188;11.566;2024-03-08T00:05:08;1.90;85.45
64111;DHT22;50401;48.188;11.566;2024-03-08T00:07:37;1.87;85.24
64111;DHT22;50401;48.188;11.566;2024-03-08T00:10:04;1.96;85.06
64111;DHT22;50401;48.188;11.566;2024-03-08T00:12:29;1.89;84.94
64111;DHT22;50401;48.188;11.566;2024-03-08T00:14:56;1.84;85.09
64111;DHT22;50401;48.188;11.566;2024-03-08T00:17:22;1.76;85.26
64111;DHT22;50401;48.188;11.566;2024-03-08T00:19:49;1.70;85.81
64111;DHT22;50401;48.188;11.566;2024-03-08T00:22:15;1.63;86.01
64111;DHT22;50401;48.188;11.566;2024-03-08T00:24:41;1.58;86.30
64111;DHT22;50401;48.188;11.566;2024-03-08T00:27:06;1.60;85.99
64111;DHT22;50401;48.188;11.566;2024-03-08T00:29:34;1.44;86.55
64111;DHT22;50401;48.188;11.566;2024-03-08T00:31:59;1.62;86.13
64111;DHT22;50401;48.188;11.566;2024-03-08T00:34:25;1.49;86.38
64111;DHT22;50401;48.188;11.566;2024-03-08T00:36:50;1.47;86.51
64111;DHT22;50401;48.188;11.566;2024-03-08T00:39:18;1.42;86.80
64111;DHT22;50401;48.188;11.566;2024-03-08T00:41:45;1.41;86.95
64111;DHT22;50401;48.188;11.566;2024-03-08T00:44:10;1.44;86.78
64111;DHT22;50401;48.188;11.566;2024-03-08T00:46:36;1.42;86.79
64111;DHT22;50401;48.188;11.566;2024-03-08T00:49:02;1.47;86.63
64111;DHT22;50401;48.188;11.566;2024-03-08T00:51:27;1.44;86.67
64111;DHT22;50401;48.188;11.566;2024-03-08T00:53:52;1.38;86.90
64111;DHT22;50401;48.188;11.566;2024-03-08T00:56:18;1.40;86.95
64111;DHT22;50401;48.188;11.566;2024-03-08T00:58:44;1.44;86.54
64111;DHT22;50401;48.188;11.566;2024-03-08T01:01:09;1.58;86.31
64111;DHT22;50401;48.188;11.566;2024-03-08T01:03:35;1.45;86.56
64111;DHT22;50401;48.188;11.566;2024-03-08T01:06:01;1.41;86.60
64111;DHT22;50401;48.188;11.566;2024-03-08T01:08:27;1.37;86.93
64111;DHT22;50401;48.188;11.566;2024-03-08T01:10:53;1.23;87.19
64111;DHT22;50401;48.188;11.566;2024-03-08T01:13:19;1.31;87.14
64111;DHT22;50401;48.188;11.566;2024-03-08T01:15:45;1.24;87.30
64111;DHT22;50401;48.188;11.566;2024-03-08T01:18:11;1.20;87.50
64111;DHT22;50401;48.188;11.566;2024-03-08T01:20:36;1.23;87.42
64111;DHT22;50401;48.188;11.566;2024-03-08T01:23:02;1.28;87.42
64111;DHT22;50401;48.188;11.566;2024-03-08T01:25:28;1.26;87.40
64111;DHT22;50401;48.188;11.566;2024-03-08T01:27:54;1.26;87.23
64111;DHT22;50401;48.188;11.566;2024-03-08T01:30:19;1.41;86.81
64111;DHT22;50401;48.188;11.566;2024-03-08T01:32:45;1.30;87.09
64111;DHT22;50401;48.188;11.566;2024-03-08T01:35:10;1.22;87.39
64111;DHT22;50401;48.188;11.566;2024-03-08T01:37:36;1.30;87.23
64111;DHT22;50401;48.188;11.566;2024-03-08T01:40:02;1.33;87.04
64111;DHT22;50401;48.188;11.566;2024-03-08T01:42:28;1.42;86.79
64111;DHT22;50401;48.188;11.566;2024-03-08T01:44:54;1.52;86.56
64111;DHT22;50401;48.188;11.566;2024-03-08T01:47:20;1.47;86.15
64111;DHT22;50401;48.188;11.566;2024-03-08T01:49:51;1.41;86.60
64111;DHT22;50401;48.188;11.566;2024-03-08T01:52:18;1.59;86.28
64111;DHT22;50401;48.188;11.566;2024-03-08T01:54:46;1.56;85.63
64111;DHT22;50401;48.188;11.566;2024-03-08T01:57:12;1.38;86.65
64111;DHT22;50401;48.188;11.566;2024-03-08T01:59:39;1.30;86.79
64111;DHT22;50401;48.188;11.566;2024-03-08T02:02:06;1.35;87.10
64111;DHT22;50401;48.188;11.566;2024-03-08T02:04:34;1.23;87.66
64111;DHT22;50401;48.188;11.566;2024-03-08T02:06:59;1.22;87.79
64111;DHT22;50401;48.188;11.566;2024-03-08T02:09:25;1.16;88.02
64111;DHT22;50401;48.188;11.566;2024-03-08T02:11:51;1.28;87.65
64111;DHT22;50401;48.188;11.566;2024-03-08T02:14:17;1.19;87.68
64111;DHT22;50401;48.188;11.566;2024-03-08T02:16:44;1.08;87.95
64111;DHT22;50401;48.188;11.566;2024-03-08T02:19:09;0.99;88.39
64111;DHT22;50401;48.188;11.566;2024-03-08T02:21:35;1.01;88.48
64111;DHT22;50401;48.188;11.566;2024-03-08T02:24:01;1.27;87.73
64111;DHT22;50401;48.188;11.566;2024-03-08T02:26:27;1.27;87.45
64111;DHT22;50401;48.188;11.566;2024-03-08T02:28:52;1.34;87.36
64111;DHT22;50401;48.188;11.566;2024-03-08T02:31:18;1.26;87.30
64111;DHT22;50401;48.188;11.566;2024-03-08T02:33:43;1.16;88.01
64111;DHT22;50401;48.188;11.566;2024-03-08T02:36:09;1.24;87.77
64111;DHT22;50401;48.188;11.566;2024-03-08T02:38:34;1.28;87.67
64111;DHT22;50401;48.188;11.566;2024-03-08T02:41:00;1.16;88.06
64111;DHT22;50401;48.188;11.566;2024-03-08T02:43:25;1.20;88.00
64111;DHT22;50401;48.188;11.566;2024-03-08T02:45:50;0.99;88.63
64111;DHT22;50401;48.188;11.566;2024-03-08T02:48:18;1.17;88.29
64111;DHT22;50401;48.188;11.566;2024-03-08T02:50:44;1.13;88.16
64111;DHT22;50401;48.188;11.566;2024-03-08T02:53:09;1.00;88.52
64111;DHT22;50401;48.188;11.566;2024-03-08T02:55:35;1.12;88.55
64111;DHT22;50401;48.188;11.566;2024-03-08T02:58:01;1.27;88.23
64111;DHT22;50401;48.188;11.566;2024-03-08T03:00:28;1.38;87.79
64111;DHT22;50401;48.188;11.566;2024-03-08T03:02:56;1.37;87.77
64111;DHT22;50401;48.188;11.566;2024-03-08T03:05:23;1.35;87.49
64111;DHT22;50401;48.188;11.566;2024-03-08T03:07:49;1.23;88.02
64111;DHT22;50401;48.188;11.566;2024-03-08T03:10:18;1.30;87.84
64111;DHT22;50401;48.188;11.566;2024-03-08T03:12:44;1.27;87.98
64111;DHT22;50401;48.188;11.566;2024-03-08T03:15:11;1.22;87.86
64111;DHT22;50401;48.188;11.566;2024-03-08T03:17:37;1.17;87.99
64111;DHT22;50401;48.188;11.566;2024-03-08T03:20:05;1.17;88.37
64111;DHT22;50401;48.188;11.566;2024-03-08T03:22:36;1.44;87.68
64111;DHT22;50401;48.188;11.566;2024-03-08T03:25:02;1.45;87.25
64111;DHT22;50401;48.188;11.566;2024-03-08T03:27:29;1.28;87.61
64111;DHT22;50401;48.188;11.566;2024-03-08T03:29:55;1.06;88.76
64111;DHT22;50401;48.188;11.566;2024-03-08T03:32:23;1.04;88.84
64111;DHT22;50401;48.188;11.566;2024-03-08T03:34:48;1.12;88.47
64111;DHT22;50401;48.188;11.566;2024-03-08T03:37:18;0.95;89.17
64111;DHT22;50401;48.188;11.566;2024-03-08T03:39:45;0.88;89.67
64111;DHT22;50401;48.188;11.566;2024-03-08T03:42:19;0.83;90.00
64111;DHT22;50401;48.188;11.566;2024-03-08T03:44:48;0.88;89.71
64111;DHT22;50401;48.188;11.566;2024-03-08T03:47:14;0.90;89.80
64111;DHT22;50401;48.188;11.566;2024-03-08T03:49:40;0.86;89.93
64111;DHT22;50401;48.188;11.566;2024-03-08T03:52:06;0.75;90.23
64111;DHT22;50401;48.188;11.566;2024-03-08T03:54:31;0.69;90.48
64111;DHT22;50401;48.188;11.566;2024-03-08T03:56:58;0.72;90.38
64111;DHT22;50401;48.188;11.566;2024-03-08T03:59:23;0.72;90.72
64111;DHT22;50401;48.188;11.566;2024-03-08T04:01:49;0.82;90.48
64111;DHT22;50401;48.188;11.566;2024-03-08T04:04:15;0.71;90.43
64111;DHT22;50401;48.188;11.566;2024-03-08T04:06:40;0.62;90.91
64111;DHT22;50401;48.188;11.566;2024-03-08T04:09:06;0.78;90.59
64111;DHT22;50401;48.188;11.566;2024-03-08T04:11:32;0.71;90.71
64111;DHT22;50401;48.188;11.566;2024-03-08T04:13:57;0.58;91.02
64111;DHT22;50401;48.188;11.566;2024-03-08T04:16:22;0.71;91.10
64111;DHT22;50401;48.188;11.566;2024-03-08T04:18:49;0.65;91.04
64111;DHT22;50401;48.188;11.566;2024-03-08T04:21:15;0.60;91.03
64111;DHT22;50401;48.188;11.566;2024-03-08T04:23:41;0.61;91.09
64111;DHT22;50401;48.188;11.566;2024-03-08T04:26:06;0.57;91.29
64111;DHT22;50401;48.188;11.566;2024-03-08T04:28:32;0.50;91.56
64111;DHT22;50401;48.188;11.566;2024-03-08T04:30:58;0.50;91.67
64111;DHT22;50401;48.188;11.566;2024-03-08T04:33:26;0.48;91.74
64111;DHT22;50401;48.188;11.566;2024-03-08T04:35:51;0.47;91.67
64111;DHT22;50401;48.188;11.566;2024-03-08T04:38:17;0.44;91.94
64111;DHT22;50401;48.188;11.566;2024-03-08T04:40:42;0.46;91.92
64111;DHT22;50401;48.188;11.566;2024-03-08T04:43:08;0.47;91.80
64111;DHT22;50401;48.188;11.566;2024-03-08T04:45:35;0.43;91.90
64111;DHT22;50401;48.188;11.566;2024-03-08T04:48:01;0.37;92.13
64111;DHT22;50401;48.188;11.566;2024-03-08T04:50:27;0.46;92.05
64111;DHT22;50401;48.188;11.566;2024-03-08T04:52:54;0.40;92.32
64111;DHT22;50401;48.188;11.566;2024-03-08T04:55:20;0.53;91.98
64111;DHT22;50401;48.188;11.566;2024-03-08T04:57:47;0.60;91.61
64111;DHT22;50401;48.188;11.566;2024-03-08T05:00:13;0.57;91.67
64111;DHT22;50401;48.188;11.566;2024-03-08T05:02:39;0.60;92.01
64111;DHT22;50401;48.188;11.566;2024-03-08T05:05:05;0.64;91.84
64111;DHT22;50401;48.188;11.566;2024-03-08T05:07:38;0.61;91.84
64111;DHT22;50401;48.188;11.566;2024-03-08T05:10:05;0.61;91.75
64111;DHT22;50401;48.188;11.566;2024-03-08T05:12:32;0.55;92.04
64111;DHT22;50401;48.188;11.566;2024-03-08T05:14:58;0.53;91.93
64111;DHT22;50401;48.188;11.566;2024-03-08T05:17:23;0.65;91.95
64111;DHT22;50401;48.188;11.566;2024-03-08T05:19:49;0.57;91.97
64111;DHT22;50401;48.188;11.566;2024-03-08T05:22:15;0.50;91.89
64111;DHT22;50401;48.188;11.566;2024-03-08T05:24:40;0.61;91.81
64111;DHT22;50401;48.188;11.566;2024-03-08T05:27:06;0.54;91.96
64111;DHT22;50401;48.188;11.566;2024-03-08T05:29:31;0.58;92.29
64111;DHT22;50401;48.188;11.566;2024-03-08T05:31:57;0.62;91.84
64111;DHT22;50401;48.188;11.566;2024-03-08T05:34:23;0.65;91.63
64111;DHT22;50401;48.188;11.566;2024-03-08T05:36:49;0.48;92.33
64111;DHT22;50401;48.188;11.566;2024-03-08T05:39:16;0.47;92.55
64111;DHT22;50401;48.188;11.566;2024-03-08T05:41:43;0.44;92.72
64111;DHT22;50401;48.188;11.566;2024-03-08T05:44:09;0.53;92.43
64111;DHT22;50401;48.188;11.566;2024-03-08T05:46:35;0.46;92.56
64111;DHT22;50401;48.188;11.566;2024-03-08T05:49:04;0.53;92.20
64111;DHT22;50401;48.188;11.566;2024-03-08T05:51:33;0.50;92.27
64111;DHT22;50401;48.188;11.566;2024-03-08T05:54:01;0.65;92.20
64111;DHT22;50401;48.188;11.566;2024-03-08T05:56:28;0.66;91.95
64111;DHT22;50401;48.188;11.566;2024-03-08T05:58:54;0.65;91.86
64111;DHT22;50401;48.188;11.566;2024-03-08T06:01:19;0.58;91.41
64111;DHT22;50401;48.188;11.566;2024-03-08T06:03:45;0.79;91.25
64111;DHT22;50401;48.188;11.566;2024-03-08T06:06:12;0.69;91.28
64111;DHT22;50401;48.188;11.566;2024-03-08T06:08:38;0.62;91.56
64111;DHT22;50401;48.188;11.566;2024-03-08T06:11:04;0.61;91.79
64111;DHT22;50401;48.188;11.566;2024-03-08T06:13:31;0.64;91.74
64111;DHT22;50401;48.188;11.566;2024-03-08T06:15:57;0.65;92.04
64111;DHT22;50401;48.188;11.566;2024-03-08T06:18:22;0.75;91.56
64111;DHT22;50401;48.188;11.566;2024-03-08T06:20:47;0.90;91.24
64111;DHT22;50401;48.188;11.566;2024-03-08T06:23:13;0.69;91.66
64111;DHT22;50401;48.188;11.566;2024-03-08T06:25:46;0.85;91.23
64111;DHT22;50401;48.188;11.566;2024-03-08T06:28:11;0.78;91.11
64111;DHT22;50401;48.188;11.566;2024-03-08T06:30:37;0.69;91.45
64111;DHT22;50401;48.188;11.566;2024-03-08T06:33:02;0.57;91.97
64111;DHT22;50401;48.188;11.566;2024-03-08T06:35:28;0.64;91.80
64111;DHT22;50401;48.188;11.566;2024-03-08T06:37:53;0.69;91.75
64111;DHT22;50401;48.188;11.566;2024-03-08T06:40:19;0.82;91.29
64111;DHT22;50401;48.188;11.566;2024-03-08T06:42:44;0.79;91.37
64111;DHT22;50401;48.188;11.566;2024-03-08T06:45:10;1.10;90.65
64111;DHT22;50401;48.188;11.566;2024-03-08T06:47:37;1.20;89.87
64111;DHT22;50401;48.188;11.566;2024-03-08T06:50:03;1.20;89.36
64111;DHT22;50401;48.188;11.566;2024-03-08T06:52:29;0.78;90.60
64111;DHT22;50401;48.188;11.566;2024-03-08T06:54:55;0.89;90.02
64111;DHT22;50401;48.188;11.566;2024-03-08T06:57:20;0.92;89.89
64111;DHT22;50401;48.188;11.566;2024-03-08T06:59:48;0.97;90.48
64111;DHT22;50401;48.188;11.566;2024-03-08T07:02:13;0.90;90.42
64111;DHT22;50401;48.188;11.566;2024-03-08T07:04:38;0.86;90.14
64111;DHT22;50401;48.188;11.566;2024-03-08T07:07:05;0.95;90.18
64111;DHT22;50401;48.188;11.566;2024-03-08T07:09:30;0.93;89.85
64111;DHT22;50401;48.188;11.566;2024-03-08T07:11:56;1.01;89.61
64111;DHT22;50401;48.188;11.566;2024-03-08T07:14:22;0.93;89.66
64111;DHT22;50401;48.188;11.566;2024-03-08T07:16:48;1.19;89.57
64111;DHT22;50401;48.188;11.566;2024-03-08T07:19:13;1.17;89.29
64111;DHT22;50401;48.188;11.566;2024-03-08T07:21:39;1.31;88.38
64111;DHT22;50401;48.188;11.566;2024-03-08T07:24:05;1.44;88.60
64111;DHT22;50401;48.188;11.566;2024-03-08T07:26:43;1.65;87.35
64111;DHT22;50401;48.188;11.566;2024-03-08T07:29:08;1.72;87.26
64111;DHT22;50401;48.188;11.566;2024-03-08T07:31:34;2.17;85.59
64111;DHT22;50401;48.188;11.566;2024-03-08T07:34:02;1.83;85.99
64111;DHT22;50401;48.188;11.566;2024-03-08T07:36:28;2.29;84.34
64111;DHT22;50401;48.188;11.566;2024-03-08T07:38:56;2.39;82.88
64111;DHT22;50401;48.188;11.566;2024-03-08T07:41:22;3.23;82.24
64111;DHT22;50401;48.188;11.566;2024-03-08T07:43:48;3.01;80.66
64111;DHT22;50401;48.188;11.566;2024-03-08T07:46:14;4.19;78.66
64111;DHT22;50401;48.188;11.566;2024-03-08T07:48:39;3.71;78.10
64111;DHT22;50401;48.188;11.566;2024-03-08T07:51:05;5.00;74.74
64111;DHT22;50401;48.188;11.566;2024-03-08T07:53:31;4.84;76.39
64111;DHT22;50401;48.188;11.566;2024-03-08T07:55:56;6.46;69.91
64111;DHT22;50401;48.188;11.566;2024-03-08T07:58:22;5.88;68.16
64111;DHT22;50401;48.188;11.566;2024-03-08T08:00:49;6.68;67.16
64111;DHT22;50401;48.188;11.566;2024-03-08T08:03:14;5.24;73.20
64111;DHT22;50401;48.188;11.566;2024-03-08T08:05:41;5.50;71.90
64111;DHT22;50401;48.188;11.566;2024-03-08T08:08:09;5.13;70.50
64111;DHT22;50401;48.188;11.566;2024-03-08T08:10:36;4.51;75.19
64111;DHT22;50401;48.188;11.566;2024-03-08T08:13:02;4.50;76.40
64111;DHT22;50401;48.188;11.566;2024-03-08T08:15:29;5.47;74.41
64111;DHT22;50401;48.188;11.566;2024-03-08T08:17:55;6.69;69.36
64111;DHT22;50401;48.188;11.566;2024-03-08T08:20:20;7.83;66.64
64111;DHT22;50401;48.188;11.566;2024-03-08T08:22:47;7.76;62.83
64111;DHT22;50401;48.188;11.566;2024-03-08T08:25:13;10.91;57.15
64111;DHT22;50401;48.188;11.566;2024-03-08T08:27:41;8.59;58.23
64111;DHT22;50401;48.188;11.566;2024-03-08T08:30:08;8.29;62.66
64111;DHT22;50401;48.188;11.566;2024-03-08T08:32:34;10.68;57.57
64111;DHT22;50401;48.188;11.566;2024-03-08T08:35:01;12.30;51.70
64111;DHT22;50401;48.188;11.566;2024-03-08T08:37:29;12.66;51.26
64111;DHT22;50401;48.188;11.566;2024-03-08T08:39:55;11.72;53.58
64111;DHT22;50401;48.188;11.566;2024-03-08T08:42:20;8.80;58.77
64111;DHT22;50401;48.188;11.566;2024-03-08T08:44:46;9.54;58.33
64111;DHT22;50401;48.188;11.566;2024-03-08T08:47:11;10.92;56.35
64111;DHT22;50401;48.188;11.566;2024-03-08T08:49:38;10.33;58.78
64111;DHT22;50401;48.188;11.566;2024-03-08T08:52:04;10.76;53.83
64111;DHT22;50401;48.188;11.566;2024-03-08T08:54:29;9.02;58.85
64111;DHT22;50401;48.188;11.566;2024-03-08T08:56:54;8.56;60.73
64111;DHT22;50401;48.188;11.566;2024-03-08T08:59:20;10.58;58.24
64111;DHT22;50401;48.188;11.566;2024-03-08T09:01:46;12.73;51.57
64111;DHT22;50401;48.188;11.566;2024-03-08T09:04:15;14.73;45.92
64111;DHT22;50401;48.188;11.566;2024-03-08T09:06:41;14.80;44.53
64111;DHT22;50401;48.188;11.566;2024-03-08T09:09:07;14.02;46.59
64111;DHT22;50401;48.188;11.566;2024-03-08T09:11:39;14.78;45.43
64111;DHT22;50401;48.188;11.566;2024-03-08T09:14:07;14.12;46.31
64111;DHT22;50401;48.188;11.566;2024-03-08T09:16:33;13.25;49.04
64111;DHT22;50401;48.188;11.566;2024-03-08T09:18:58;13.52;47.32
64111;DHT22;50401;48.188;11.566;2024-03-08T09:21:25;12.49;49.25
64111;DHT22;50401;48.188;11.566;2024-03-08T09:23:51;11.79;52.11
64111;DHT22;50401;48.188;11.566;2024-03-08T09:26:17;11.55;53.24
64111;DHT22;50401;48.188;11.566;2024-03-08T09:28:42;11.14;53.91
64111;DHT22;50401;48.188;11.566;2024-03-08T09:31:08;11.11;53.58
64111;DHT22;50401;48.188;11.566;2024-03-08T09:33:33;10.62;55.65
64111;DHT22;50401;48.188;11.566;2024-03-08T09:35:59;10.71;55.48
64111;DHT22;50401;48.188;11.566;2024-03-08T09:38:24;10.65;55.68
64111;DHT22;50401;48.188;11.566;2024-03-08T09:40:51;9.46;59.19
64111;DHT22;50401;48.188;11.566;2024-03-08T09:43:16;9.43;59.02
64111;DHT22;50401;48.188;11.566;2024-03-08T09:45:45;9.02;59.61
64111;DHT22;50401;48.188;11.566;2024-03-08T09:48:12;9.46;60.35
64111;DHT22;50401;48.188;11.566;2024-03-08T09:50:42;7.99;64.23
64111;DHT22;50401;48.188;11.566;2024-03-08T09:53:08;7.00;67.22
64111;DHT22;50401;48.188;11.566;2024-03-08T09:55:37;6.61;68.01
64111;DHT22;50401;48.188;11.566;2024-03-08T09:58:08;7.94;64.76
64111;DHT22;50401;48.188;11.566;2024-03-08T10:00:53;6.96;66.38
64111;DHT22;50401;48.188;11.566;2024-03-08T10:03:19;6.44;69.23
64111;DHT22;50401;48.188;11.566;2024-03-08T10:05:45;7.10;68.51
64111;DHT22;50401;48.188;11.566;2024-03-08T10:08:11;7.18;67.82
64111;DHT22;50401;48.188;11.566;2024-03-08T10:10:38;6.68;68.55
64111;DHT22;50401;48.188;11.566;2024-03-08T10:13:07;6.49;69.45
64111;DHT22;50401;48.188;11.566;2024-03-08T10:15:33;7.01;69.04
64111;DHT22;50401;48.188;11.566;2024-03-08T10:17:58;6.99;69.34
64111;DHT22;50401;48.188;11.566;2024-03-08T10:20:24;7.77;66.32
64111;DHT22;50401;48.188;11.566;2024-03-08T10:22:51;7.07;67.72
64111;DHT22;50401;48.188;11.566;2024-03-08T10:25:19;7.24;68.01
64111;DHT22;50401;48.188;11.566;2024-03-08T10:27:44;6.94;68.60
64111;DHT22;50401;48.188;11.566;2024-03-08T10:30:13;7.34;67.12
64111;DHT22;50401;48.188;11.566;2024-03-08T10:32:39;7.31;67.93
64111;DHT22;50401;48.188;11.566;2024-03-08T10:35:07;6.62;69.12
64111;DHT22;50401;48.188;11.566;2024-03-08T10:37:48;6.79;70.16
64111;DHT22;50401;48.188;11.566;2024-03-08T10:40:18;7.00;69.12
64111;DHT22;50401;48.188;11.566;2024-03-08T10:42:58;6.68;69.84
64111;DHT22;50401;48.188;11.566;2024-03-08T10:45:38;6.45;70.63
64111;DHT22;50401;48.188;11.566;2024-03-08T10:48:28;6.76;70.96
64111;DHT22;50401;48.188;11.566;2024-03-08T10:50:57;6.83;70.47
64111;DHT22;50401;48.188;11.566;2024-03-08T10:53:23;7.26;69.47
64111;DHT22;50401;48.188;11.566;2024-03-08T10:55:49;7.39;68.58
64111;DHT22;50401;48.188;11.566;2024-03-08T10:58:20;6.84;69.80
64111;DHT22;50401;48.188;11.566;2024-03-08T11:00:46;7.17;69.24
64111;DHT22;50401;48.188;11.566;2024-03-08T11:06:05;7.07;68.54
64111;DHT22;50401;48.188;11.566;2024-03-08T11:08:31;6.73;70.40
64111;DHT22;50401;48.188;11.566;2024-03-08T11:10:59;6.87;69.61
64111;DHT22;50401;48.188;11.566;2024-03-08T11:13:42;6.83;69.96
64111;DHT22;50401;48.188;11.566;2024-03-08T11:16:12;6.79;69.79
64111;DHT22;50401;48.188;11.566;2024-03-08T11:18:38;6.89;70.63
64111;DHT22;50401;48.188;11.566;2024-03-08T11:21:04;7.24;69.34
64111;DHT22;50401;48.188;11.566;2024-03-08T11:23:37;7.21;68.60
64111;DHT22;50401;48.188;11.566;2024-03-08T11:26:03;7.10;68.79
64111;DHT22;50401;48.188;11.566;2024-03-08T11:28:32;7.31;68.60
64111;DHT22;50401;48.188;11.566;2024-03-08T11:33:30;7.19;69.04
64111;DHT22;50401;48.188;11.566;2024-03-08T11:36:11;7.18;68.23
64111;DHT22;50401;48.188;11.566;2024-03-08T11:38:44;7.38;68.22
64111;DHT22;50401;48.188;11.566;2024-03-08T11:41:10;7.58;67.95
64111;DHT22;50401;48.188;11.566;2024-03-08T11:43:40;7.81;67.38
64111;DHT22;50401;48.188;11.566;2024-03-08T11:46:11;7.94;66.83
64111;DHT22;50401;48.188;11.566;2024-03-08T11:48:41;7.98;66.99
64111;DHT22;50401;48.188;11.566;2024-03-08T11:51:08;7.98;66.28
64111;DHT22;50401;48.188;11.566;2024-03-08T11:53:33;7.98;65.80
64111;DHT22;50401;48.188;11.566;2024-03-08T11:56:08;8.05;65.54
64111;DHT22;50401;48.188;11.566;2024-03-08T11:58:34;7.87;65.77
64111;DHT22;50401;48.188;11.566;2024-03-08T12:01:10;7.77;66.10
64111;DHT22;50401;48.188;11.566;2024-03-08T12:03:39;7.60;66.13
64111;DHT22;50401;48.188;11.566;2024-03-08T12:06:05;7.63;66.79
64111;DHT22;50401;48.188;11.566;2024-03-08T12:08:31;7.81;66.15
64111;DHT22;50401;48.188;11.566;2024-03-08T12:10:57;7.74;65.49
64111;DHT22;50401;48.188;11.566;2024-03-08T12:13:33;7.83;65.63
64111;DHT22;50401;48.188;11.566;2024-03-08T12:16:03;7.94;65.50
64111;DHT22;50401;48.188;11.566;2024-03-08T12:18:38;7.83;65.91
64111;DHT22;50401;48.188;11.566;2024-03-08T12:21:08;8.09;65.80
64111;DHT22;50401;48.188;11.566;2024-03-08T12:23:34;7.97;65.40
64111;DHT22;50401;48.188;11.566;2024-03-08T12:28:42;8.11;65.00
64111;DHT22;50401;48.188;11.566;2024-03-08T12:31:11;8.13;64.86
64111;DHT22;50401;48.188;11.566;2024-03-08T12:33:57;7.97;64.46
64111;DHT22;50401;48.188;11.566;2024-03-08T12:36:25;7.99;65.49
64111;DHT22;50401;48.188;11.566;2024-03-08T12:38:53;8.04;65.98
64111;DHT22;50401;48.188;11.566;2024-03-08T12:41:20;8.12;65.80
64111;DHT22;50401;48.188;11.566;2024-03-08T12:43:47;8.30;65.44
64111;DHT22;50401;48.188;11.566;2024-03-08T12:46:20;8.25;64.49
64111;DHT22;50401;48.188;11.566;2024-03-08T12:48:46;8.42;64.69
64111;DHT22;50401;48.188;11.566;2024-03-08T12:51:16;8.36;64.95
64111;DHT22;50401;48.188;11.566;2024-03-08T12:53:43;8.25;63.43
64111;DHT22;50401;48.188;11.566;2024-03-08T12:56:13;8.26;64.73
64111;DHT22;50401;48.188;11.566;2024-03-08T12:58:39;8.21;63.15
64111;DHT22;50401;48.188;11.566;2024-03-08T13:01:06;8.28;63.22
64111;DHT22;50401;48.188;11.566;2024-03-08T13:03:33;8.15;62.89
64111;DHT22;50401;48.188;11.566;2024-03-08T13:06:07;8.12;63.46
64111;DHT22;50401;48.188;11.566;2024-03-08T13:08:36;8.30;64.17
64111;DHT22;50401;48.188;11.566;2024-03-08T13:11:05;8.37;64.69
64111;DHT22;50401;48.188;11.566;2024-03-08T13:13:30;8.47;64.74
64111;DHT22;50401;48.188;11.566;2024-03-08T13:15:55;8.52;63.60
64111;DHT22;50401;48.188;11.566;2024-03-08T13:18:22;8.53;63.70
64111;DHT22;50401;48.188;11.566;2024-03-08T13:20:48;8.53;63.07
64111;DHT22;50401;48.188;11.566;2024-03-08T13:23:14;8.67;62.62
64111;DHT22;50401;48.188;11.566;2024-03-08T13:25:40;8.71;62.49
64111;DHT22;50401;48.188;11.566;2024-03-08T13:28:06;8.68;62.60
64111;DHT22;50401;48.188;11.566;2024-03-08T13:30:32;8.49;63.38
64111;DHT22;50401;48.188;11.566;2024-03-08T13:32:57;8.47;63.33
64111;DHT22;50401;48.188;11.566;2024-03-08T13:35:22;8.53;63.66
64111;DHT22;50401;48.188;11.566;2024-03-08T13:37:52;8.70;63.13
64111;DHT22;50401;48.188;11.566;2024-03-08T13:40:18;8.65;62.86
64111;DHT22;50401;48.188;11.566;2024-03-08T13:42:47;8.74;62.67
64111;DHT22;50401;48.188;11.566;2024-03-08T13:45:14;8.71;61.78
64111;DHT22;50401;48.188;11.566;2024-03-08T13:47:43;8.60;62.68
64111;DHT22;50401;48.188;11.566;2024-03-08T13:50:10;8.61;63.10
64111;DHT22;50401;48.188;11.566;2024-03-08T13:52:41;8.74;63.36
64111;DHT22;50401;48.188;11.566;2024-03-08T13:55:09;8.81;63.24
64111;DHT22;50401;48.188;11.566;2024-03-08T13:57:34;8.77;61.98
64111;DHT22;50401;48.188;11.566;2024-03-08T14:00:00;8.77;61.84
64111;DHT22;50401;48.188;11.566;2024-03-08T14:02:25;9.04;62.57
64111;DHT22;50401;48.188;11.566;2024-03-08T14:04:56;8.74;61.31
64111;DHT22;50401;48.188;11.566;2024-03-08T14:07:22;8.80;60.95
64111;DHT22;50401;48.188;11.566;2024-03-08T14:09:49;8.65;62.23
64111;DHT22;50401;48.188;11.566;2024-03-08T14:12:14;8.75;62.51
64111;DHT22;50401;48.188;11.566;2024-03-08T14:14:43;8.77;62.37
64111;DHT22;50401;48.188;11.566;2024-03-08T14:17:09;8.74;62.11
64111;DHT22;50401;48.188;11.566;2024-03-08T14:19:38;8.73;62.39
64111;DHT22;50401;48.188;11.566;2024-03-08T14:22:04;8.80;61.98
64111;DHT22;50401;48.188;11.566;2024-03-08T14:24:33;8.75;62.27
64111;DHT22;50401;48.188;11.566;2024-03-08T14:27:01;8.77;62.14
64111;DHT22;50401;48.188;11.566;2024-03-08T14:29:28;8.82;61.55
64111;DHT22;50401;48.188;11.566;2024-03-08T14:31:56;8.87;61.98
64111;DHT22;50401;48.188;11.566;2024-03-08T14:34:24;8.68;61.89
64111;DHT22;50401;48.188;11.566;2024-03-08T14:36:52;8.77;62.14
64111;DHT22;50401;48.188;11.566;2024-03-08T14:39:18;8.73;62.44
64111;DHT22;50401;48.188;11.566;2024-03-08T14:41:49;8.77;61.89
64111;DHT22;50401;48.188;11.566;2024-03-08T14:44:22;8.57;62.11
64111;DHT22;50401;48.188;11.566;2024-03-08T14:46:52;8.54;62.60
64111;DHT22;50401;48.188;11.566;2024-03-08T14:49:17;8.56;62.35
64111;DHT22;50401;48.188;11.566;2024-03-08T14:51:44;8.59;61.95
64111;DHT22;50401;48.188;11.566;2024-03-08T14:54:09;8.65;61.45
64111;DHT22;50401;48.188;11.566;2024-03-08T14:56:36;8.64;61.52
64111;DHT22;50401;48.188;11.566;2024-03-08T14:59:02;8.65;61.48
64111;DHT22;50401;48.188;11.566;2024-03-08T15:01:27;8.65;61.06
64111;DHT22;50401;48.188;11.566;2024-03-08T15:03:55;8.65;61.07
64111;DHT22;50401;48.188;11.566;2024-03-08T15:06:21;8.52;61.41
64111;DHT22;50401;48.188;11.566;2024-03-08T15:08:47;8.65;60.66
64111;DHT22;50401;48.188;11.566;2024-03-08T15:11:13;8.65;60.87
64111;DHT22;50401;48.188;11.566;2024-03-08T15:13:49;8.71;60.57
64111;DHT22;50401;48.188;11.566;2024-03-08T15:16:18;8.75;60.46
64111;DHT22;50401;48.188;11.566;2024-03-08T15:18:44;8.68;60.20
64111;DHT22;50401;48.188;11.566;2024-03-08T15:21:14;8.65;60.55
64111;DHT22;50401;48.188;11.566;2024-03-08T15:23:44;8.61;61.25
64111;DHT22;50401;48.188;11.566;2024-03-08T15:26:15;8.50;61.42
64111;DHT22;50401;48.188;11.566;2024-03-08T15:28:41;8.57;61.62
64111;DHT22;50401;48.188;11.566;2024-03-08T15:31:07;8.65;61.44
64111;DHT22;50401;48.188;11.566;2024-03-08T15:33:37;8.61;61.63
64111;DHT22;50401;48.188;11.566;2024-03-08T15:36:16;8.40;62.31